createdAt,value
2022-08-03T00:02:16.013Z,51.26
2022-08-03T00:04:42.943Z,50.91
2022-08-03T00:07:09.511Z,51.01
2022-08-03T00:09:36.612Z,51.56
2022-08-03T00:12:05.233Z,51.31
2022-08-03T00:14:31.811Z,51.48
2022-08-03T00:16:58.327Z,51.34
2022-08-03T00:19:25.073Z,51.51
2022-08-03T00:21:51.750Z,51.37
2022-08-03T00:24:18.304Z,51.57
2022-08-03T00:26:45.047Z,51.35
2022-08-03T00:29:13.174Z,51.87
2022-08-03T00:31:52.810Z,52.12
2022-08-03T00:34:36.382Z,51.73
2022-08-03T00:37:12.392Z,52.01
2022-08-03T00:39:39.002Z,52.34
2022-08-03T00:42:05.802Z,52.42
2022-08-03T00:44:39.767Z,52.41
2022-08-03T00:47:06.686Z,52.83
2022-08-03T00:49:33.478Z,52.95
2022-08-03T00:52:01.143Z,52.84
2022-08-03T00:54:37.961Z,52.91
2022-08-03T00:57:04.904Z,53.51
2022-08-03T00:59:33.018Z,52.74
2022-08-03T01:01:59.641Z,52.82
2022-08-03T01:04:26.227Z,52.50
2022-08-03T01:07:00.965Z,52.57
2022-08-03T01:10:06.354Z,52.98
2022-08-03T01:12:39.000Z,53.16
2022-08-03T01:15:15.575Z,52.68
2022-08-03T01:17:51.293Z,52.76
2022-08-03T01:20:20.964Z,53.37
2022-08-03T01:23:10.523Z,53.49
2022-08-03T01:25:55.230Z,53.32
2022-08-03T01:28:47.945Z,54.04
2022-08-03T01:31:21.784Z,54.24
2022-08-03T01:33:55.587Z,53.92
2022-08-03T01:36:24.396Z,53.33
2022-08-03T01:38:54.989Z,53.88
2022-08-03T01:41:32.132Z,53.32
2022-08-03T01:44:29.178Z,53.63
2022-08-03T01:46:50.012Z,53.16
2022-08-03T01:49:17.487Z,53.54
2022-08-03T01:51:56.667Z,53.17
2022-08-03T01:54:35.007Z,52.88
2022-08-03T01:57:03.722Z,52.84
2022-08-03T01:59:32.399Z,52.81
2022-08-03T02:02:25.228Z,53.06
2022-08-03T02:04:50.377Z,52.55
2022-08-03T02:07:17.610Z,53.15
2022-08-03T02:09:46.683Z,52.76
2022-08-03T02:12:14.556Z,52.59
2022-08-03T02:14:43.232Z,53.06
2022-08-03T02:17:13.909Z,52.53
2022-08-03T02:20:22.168Z,52.97
2022-08-03T02:22:48.838Z,52.81
2022-08-03T02:25:32.222Z,52.70
2022-08-03T02:28:05.975Z,52.70
2022-08-03T02:34:26.875Z,53.13
2022-08-03T02:36:54.478Z,52.84
2022-08-03T02:39:24.693Z,52.73
2022-08-03T02:41:52.679Z,52.28
2022-08-03T02:44:24.657Z,52.77
2022-08-03T02:46:55.739Z,52.39
2022-08-03T02:49:40.689Z,52.49
2022-08-03T02:52:15.755Z,52.70
2022-08-03T02:54:46.148Z,52.84
2022-08-03T02:57:14.995Z,53.00
2022-08-03T03:03:07.502Z,52.87
2022-08-03T03:05:53.117Z,53.05
2022-08-03T03:08:26.116Z,53.40
2022-08-03T03:10:55.860Z,53.28
2022-08-03T03:13:23.050Z,52.74
2022-08-03T03:15:50.718Z,52.67
2022-08-03T03:18:21.860Z,52.99
2022-08-03T03:20:52.873Z,53.00
2022-08-03T03:23:21.280Z,52.70
2022-08-03T03:25:49.531Z,52.59
2022-08-03T03:28:16.622Z,52.80
2022-08-03T03:30:43.638Z,52.71
2022-08-03T03:33:10.523Z,52.80
2022-08-03T03:35:39.224Z,53.29
2022-08-03T03:38:07.405Z,52.96
2022-08-03T03:40:35.168Z,53.58
2022-08-03T03:43:02.150Z,53.39
2022-08-03T03:45:31.542Z,53.85
2022-08-03T03:47:59.964Z,54.02
2022-08-03T03:50:27.595Z,54.42
2022-08-03T03:52:54.138Z,54.30
2022-08-03T03:55:22.343Z,54.67
2022-08-03T03:57:49.098Z,54.33
2022-08-03T04:00:17.685Z,54.25
2022-08-03T04:02:44.678Z,54.32
2022-08-03T04:05:11.552Z,54.00
2022-08-03T04:07:46.325Z,54.33
2022-08-03T04:10:16.955Z,54.17
2022-08-03T04:12:50.520Z,53.99
2022-08-03T04:15:20.316Z,54.08
2022-08-03T04:17:48.173Z,53.74
2022-08-03T04:20:16.716Z,53.33
2022-08-03T04:22:43.340Z,53.37
2022-08-03T04:25:14.712Z,53.29
2022-08-03T04:27:42.344Z,53.07
2022-08-03T04:30:11.540Z,52.40
2022-08-03T04:32:44.115Z,52.32
2022-08-03T04:35:12.385Z,51.77
2022-08-03T04:37:42.164Z,51.82
2022-08-03T04:40:15.071Z,50.98
2022-08-03T04:42:42.905Z,49.74
2022-08-03T04:45:12.974Z,50.09
2022-08-03T04:47:40.949Z,49.57
2022-08-03T04:50:12.316Z,49.40
2022-08-03T04:52:40.070Z,46.98
2022-08-03T04:55:07.406Z,43.91
2022-08-03T04:57:34.007Z,42.78
2022-08-03T05:00:03.357Z,43.34
2022-08-03T05:02:31.976Z,38.68
2022-08-03T05:04:59.066Z,33.70
2022-08-03T05:07:25.735Z,30.71
2022-08-03T05:10:01.800Z,32.27
2022-08-03T05:12:32.729Z,32.55
2022-08-03T05:15:00.441Z,31.52
2022-08-03T05:17:27.210Z,28.82
2022-08-03T05:19:55.953Z,26.52
2022-08-03T05:22:23.165Z,25.73
2022-08-03T05:24:49.889Z,25.63
2022-08-03T05:27:16.468Z,25.46
2022-08-03T05:29:43.307Z,25.45
2022-08-03T05:32:10.235Z,25.50
2022-08-03T05:34:36.936Z,26.80
2022-08-03T05:37:05.020Z,26.55
2022-08-03T05:39:31.659Z,26.90
2022-08-03T05:41:58.560Z,27.08
2022-08-03T05:44:25.296Z,28.04
2022-08-03T05:46:52.267Z,29.26
2022-08-03T05:49:19.606Z,29.45
2022-08-03T05:51:46.501Z,29.26
2022-08-03T05:54:56.340Z,30.37
2022-08-03T05:57:14.240Z,30.24
2022-08-03T05:59:41.130Z,29.86
2022-08-03T06:13:59.458Z,30.43
2022-08-03T06:16:29.724Z,29.84
2022-08-03T06:18:56.320Z,29.75
2022-08-03T06:21:28.541Z,29.84
2022-08-03T06:24:53.754Z,29.95
2022-08-03T06:27:36.310Z,30.22
2022-08-03T06:36:32.570Z,30.47
2022-08-03T06:38:59.355Z,29.65
2022-08-03T06:41:26.187Z,29.95
2022-08-03T06:44:03.573Z,30.45
2022-08-03T06:46:36.484Z,30.44
2022-08-03T06:49:04.654Z,29.84
2022-08-03T06:52:05.424Z,30.51
2022-08-03T06:54:18.117Z,30.98
2022-08-03T06:56:44.723Z,31.03
2022-08-03T07:00:08.022Z,30.14
2022-08-03T07:01:58.056Z,29.82
2022-08-03T07:04:26.119Z,29.58
2022-08-03T07:10:31.146Z,29.49
2022-08-03T07:12:58.373Z,29.79
2022-08-03T07:18:58.019Z,28.22
2022-08-03T07:25:53.733Z,28.56
2022-08-03T07:28:52.739Z,28.66
2022-08-03T08:15:22.957Z,28.10
2022-08-03T08:17:51.282Z,28.17
2022-08-03T08:30:50.038Z,28.66
2022-08-03T08:33:23.337Z,28.24
2022-08-03T08:43:08.514Z,26.92
2022-08-03T08:45:38.529Z,27.83
2022-08-03T08:48:22.424Z,26.64
2022-08-03T08:50:53.240Z,27.70
2022-08-03T08:53:26.736Z,27.33
2022-08-03T09:00:13.208Z,26.69
2022-08-03T09:07:19.655Z,26.28
2022-08-03T09:28:56.398Z,26.44
2022-08-03T09:31:10.087Z,26.69
2022-08-03T09:34:18.146Z,27.40
2022-08-03T09:36:48.915Z,27.15
2022-08-03T09:39:41.332Z,27.40
2022-08-03T09:42:40.885Z,27.36
2022-08-03T09:45:30.849Z,27.56
2022-08-03T09:52:29.519Z,26.79
2022-08-03T09:54:34.781Z,26.53
2022-08-03T10:00:56.692Z,26.65
2022-08-03T10:03:29.667Z,26.72
2022-08-03T10:05:59.837Z,26.40
2022-08-03T10:12:29.174Z,26.04
2022-08-03T10:18:44.693Z,26.41
2022-08-03T10:24:07.109Z,28.03
2022-08-03T10:30:06.707Z,28.82
2022-08-03T10:32:44.269Z,28.54
2022-08-03T10:36:10.070Z,28.24
2022-08-03T10:38:56.879Z,28.24
2022-08-03T10:41:35.446Z,26.74
2022-08-03T10:44:05.474Z,27.46
2022-08-03T10:53:54.818Z,27.86
2022-08-03T10:56:50.570Z,28.06
2022-08-03T10:59:27.806Z,27.95
2022-08-03T11:01:58.218Z,27.73
2022-08-03T11:04:26.283Z,27.07
2022-08-03T11:07:36.894Z,27.68
2022-08-03T11:10:07.736Z,28.44
2022-08-03T11:12:38.507Z,28.26
2022-08-03T11:15:10.033Z,28.38
2022-08-03T11:17:46.421Z,28.50
2022-08-03T11:20:47.447Z,26.64
2022-08-03T11:23:14.614Z,27.08
2022-08-03T11:26:12.806Z,28.07
2022-08-03T11:28:41.763Z,27.92
2022-08-03T11:31:52.666Z,28.06
2022-08-03T11:34:19.461Z,28.03
2022-08-03T11:37:21.439Z,26.96
2022-08-03T11:39:54.079Z,26.63
2022-08-03T11:42:43.006Z,26.92
2022-08-03T11:45:12.642Z,26.96
2022-08-03T11:47:51.148Z,26.30
2022-08-03T11:50:18.618Z,25.72
2022-08-03T11:52:45.645Z,27.73
2022-08-03T11:55:14.443Z,26.60
2022-08-03T11:59:01.153Z,26.70
2022-08-03T12:00:31.745Z,26.14
2022-08-03T12:03:01.348Z,25.52
2022-08-03T12:05:39.887Z,26.32
2022-08-03T12:08:08.844Z,26.91
2022-08-03T12:10:36.696Z,26.88
2022-08-03T12:13:05.141Z,26.17
2022-08-03T12:15:54.566Z,26.43
2022-08-03T12:18:22.310Z,26.45
2022-08-03T12:20:50.983Z,25.62
2022-08-03T12:23:18.305Z,27.31
2022-08-03T12:25:46.338Z,25.92
2022-08-03T12:28:31.794Z,25.50
2022-08-03T12:31:07.199Z,26.38
2022-08-03T12:34:01.032Z,25.39
2022-08-03T12:36:27.736Z,26.39
2022-08-03T12:38:56.350Z,26.40
2022-08-03T12:41:28.648Z,26.21
2022-08-03T12:43:55.371Z,25.63
2022-08-03T12:46:29.051Z,25.09
2022-08-03T12:49:06.663Z,25.54
2022-08-03T12:51:34.957Z,25.93
2022-08-03T12:54:02.892Z,25.54
2022-08-03T12:56:29.966Z,25.25
2022-08-03T12:58:56.591Z,25.88
2022-08-03T13:01:24.569Z,25.30
2022-08-03T13:07:21.354Z,25.08
2022-08-03T13:09:49.597Z,24.97
2022-08-03T13:12:17.053Z,24.61
2022-08-03T13:14:44.991Z,25.31
2022-08-03T13:17:13.139Z,24.92
2022-08-03T13:19:40.449Z,24.43
2022-08-03T13:22:14.029Z,24.60
2022-08-03T13:24:41.789Z,25.59
2022-08-03T13:28:00.005Z,25.79
2022-08-03T13:29:56.163Z,24.76
2022-08-03T13:32:24.353Z,24.43
2022-08-03T13:34:52.254Z,25.45
2022-08-03T13:37:18.933Z,25.14
2022-08-03T13:39:58.324Z,25.40
2022-08-03T13:42:28.180Z,25.08
2022-08-03T13:44:54.775Z,24.15
2022-08-03T13:47:21.742Z,24.87
2022-08-03T13:49:54.223Z,25.09
2022-08-03T13:52:28.969Z,25.67
2022-08-03T13:54:55.539Z,26.02
2022-08-03T13:58:04.319Z,25.18
2022-08-03T14:00:10.073Z,24.07
2022-08-03T14:02:36.750Z,24.34
2022-08-03T14:05:05.664Z,24.10
2022-08-03T14:07:32.334Z,24.04
2022-08-03T14:09:58.928Z,25.09
2022-08-03T14:12:25.516Z,23.81
2022-08-03T14:14:52.102Z,23.81
2022-08-03T14:17:19.044Z,23.80
2022-08-03T14:19:53.196Z,23.33
2022-08-03T14:22:22.006Z,24.22
2022-08-03T14:24:49.241Z,23.70
2022-08-03T14:27:16.396Z,24.23
2022-08-03T14:29:43.252Z,25.12
2022-08-03T14:32:13.116Z,23.91
2022-08-03T14:34:40.290Z,24.27
2022-08-03T14:37:06.957Z,23.81
2022-08-03T14:42:22.209Z,23.09
2022-08-03T14:44:49.120Z,23.36
2022-08-03T14:47:15.777Z,24.43
2022-08-03T14:50:37.960Z,23.08
2022-08-03T14:52:29.060Z,23.39
2022-08-03T14:54:57.250Z,22.96
2022-08-03T14:57:23.986Z,22.70
2022-08-03T14:59:56.127Z,22.92
2022-08-03T15:02:24.544Z,22.45
2022-08-03T15:04:51.767Z,23.47
2022-08-03T15:07:18.645Z,23.61
2022-08-03T15:09:45.336Z,23.91
2022-08-03T15:12:13.307Z,23.33
2022-08-03T15:14:40.437Z,23.39
2022-08-03T15:17:07.538Z,23.97
2022-08-03T15:20:02.842Z,23.89
2022-08-03T15:22:25.373Z,23.54
2022-08-03T15:25:01.245Z,24.67
2022-08-03T15:27:29.278Z,24.35
2022-08-03T15:30:05.989Z,24.58
2022-08-03T15:32:36.324Z,23.90
2022-08-03T15:35:03.115Z,24.59
2022-08-03T15:37:29.644Z,25.07
2022-08-03T15:39:58.830Z,24.52
2022-08-03T15:42:26.836Z,24.94
2022-08-03T15:44:55.429Z,24.40
2022-08-03T15:47:22.301Z,23.50
2022-08-03T15:49:49.255Z,23.90
2022-08-03T15:52:15.947Z,23.37
2022-08-03T15:54:42.542Z,22.83
2022-08-03T15:57:09.208Z,22.91
2022-08-03T15:59:36.139Z,22.90
2022-08-03T16:02:04.375Z,23.07
2022-08-03T16:04:31.080Z,23.47
2022-08-03T16:06:57.748Z,24.07
2022-08-03T16:09:43.317Z,23.26
2022-08-03T16:12:15.893Z,23.03
2022-08-03T16:14:52.009Z,23.02
2022-08-03T16:17:20.986Z,23.25
2022-08-03T16:19:47.748Z,23.52
2022-08-03T16:22:14.476Z,23.38
2022-08-03T16:24:41.280Z,23.58
2022-08-03T16:27:23.285Z,23.57
2022-08-03T16:29:57.545Z,23.28
2022-08-03T16:32:25.823Z,24.10
2022-08-03T16:34:52.446Z,24.05
2022-08-03T16:37:39.747Z,24.45
2022-08-03T16:40:17.356Z,25.28
2022-08-03T16:43:00.472Z,24.77
2022-08-03T16:45:27.712Z,25.09
2022-08-03T16:48:05.729Z,25.16
2022-08-03T16:50:33.797Z,25.43
2022-08-03T16:53:00.396Z,24.60
2022-08-03T16:55:43.480Z,24.88
2022-08-03T16:58:13.565Z,24.69
2022-08-03T17:00:41.762Z,24.69
2022-08-03T17:03:20.604Z,24.61
2022-08-03T17:05:50.739Z,24.95
2022-08-03T17:08:26.596Z,24.66
2022-08-03T17:10:54.981Z,25.62
2022-08-03T17:13:22.953Z,24.88
2022-08-03T17:15:58.088Z,25.28
2022-08-03T17:18:36.913Z,25.20
2022-08-03T17:21:05.729Z,24.66
2022-08-03T17:23:39.328Z,25.49
2022-08-03T17:26:20.865Z,26.07
2022-08-03T17:28:57.512Z,25.56
2022-08-03T17:31:30.814Z,25.86
2022-08-03T17:34:04.539Z,25.91
2022-08-03T17:37:02.116Z,26.22
2022-08-03T17:39:36.154Z,26.74
2022-08-03T17:42:17.099Z,27.33
2022-08-03T17:44:56.576Z,27.70
2022-08-03T17:47:23.275Z,27.90
2022-08-03T17:49:57.416Z,28.07
2022-08-03T17:52:28.625Z,27.11
2022-08-03T17:55:55.894Z,27.02
2022-08-03T17:58:03.319Z,27.44
2022-08-03T18:00:30.812Z,27.49
2022-08-03T18:03:06.195Z,28.03
2022-08-03T18:06:10.760Z,27.85
2022-08-03T18:08:27.189Z,28.32
2022-08-03T18:11:03.549Z,28.20
2022-08-03T18:13:58.041Z,28.29
2022-08-03T18:16:31.549Z,28.28
2022-08-03T18:19:01.318Z,29.05
2022-08-03T18:22:02.021Z,29.34
2022-08-03T18:24:25.001Z,29.34
2022-08-03T18:26:53.361Z,29.82
2022-08-03T18:29:22.067Z,29.90
2022-08-03T18:32:03.371Z,30.01
2022-08-03T18:34:34.060Z,30.33
2022-08-03T18:37:07.150Z,30.36
2022-08-03T18:39:38.897Z,30.50
2022-08-03T18:42:19.873Z,30.94
2022-08-03T18:44:56.151Z,31.24
2022-08-03T18:47:50.855Z,31.27
2022-08-03T18:50:24.864Z,30.98
2022-08-03T18:53:02.380Z,31.22
2022-08-03T18:55:33.407Z,31.16
2022-08-03T18:58:09.681Z,30.82
2022-08-03T19:00:56.651Z,31.49
2022-08-03T19:03:24.878Z,31.66
2022-08-03T19:06:19.152Z,32.32
2022-08-03T19:08:54.194Z,32.45
2022-08-03T19:11:28.206Z,32.81
2022-08-03T19:13:58.260Z,32.64
2022-08-03T19:16:31.017Z,33.06
2022-08-03T19:18:59.915Z,32.75
2022-08-03T19:21:28.162Z,33.04
2022-08-03T19:24:00.366Z,33.15
2022-08-03T19:26:30.125Z,32.15
2022-08-03T19:28:58.373Z,32.52
2022-08-03T19:31:30.668Z,32.62
2022-08-03T19:33:59.630Z,32.61
2022-08-03T19:36:27.294Z,33.10
2022-08-03T19:38:57.500Z,33.01
2022-08-03T19:41:27.423Z,32.84
2022-08-03T19:43:59.794Z,33.58
2022-08-03T19:46:30.958Z,33.88
2022-08-03T19:49:02.837Z,33.73
2022-08-03T19:52:01.627Z,34.47
2022-08-03T19:54:29.803Z,34.86
2022-08-03T19:57:00.157Z,35.05
2022-08-03T19:59:31.364Z,35.17
2022-08-03T20:01:58.009Z,34.64
2022-08-03T20:04:25.077Z,34.88
2022-08-03T20:06:52.345Z,35.51
2022-08-03T20:09:20.724Z,35.00
2022-08-03T20:11:47.797Z,35.30
2022-08-03T20:14:20.833Z,35.88
2022-08-03T20:16:53.927Z,35.44
2022-08-03T20:19:21.326Z,35.98
2022-08-03T20:21:50.947Z,36.40
2022-08-03T20:24:25.268Z,36.29
2022-08-03T20:26:54.234Z,36.02
2022-08-03T20:30:05.429Z,36.60
2022-08-03T20:32:15.314Z,36.80
2022-08-03T20:34:42.589Z,36.32
2022-08-03T20:37:09.570Z,36.87
2022-08-03T20:39:40.057Z,37.17
2022-08-03T20:42:14.786Z,37.53
2022-08-03T20:45:04.273Z,37.42
2022-08-03T20:47:33.798Z,38.33
2022-08-03T20:50:03.764Z,38.10
2022-08-03T20:52:31.547Z,38.19
2022-08-03T20:54:59.854Z,39.02
2022-08-03T20:57:33.192Z,38.73
2022-08-03T21:00:00.457Z,38.66
2022-08-03T21:02:29.976Z,39.10
2022-08-03T21:04:58.349Z,38.96
2022-08-03T21:08:04.112Z,39.00
2022-08-03T21:10:17.020Z,39.61
2022-08-03T21:12:50.463Z,39.01
2022-08-03T21:16:11.893Z,38.56
2022-08-03T21:18:10.711Z,38.50
2022-08-03T21:20:40.492Z,39.31
2022-08-03T21:23:09.431Z,39.17
2022-08-03T21:25:37.798Z,39.09
2022-08-03T21:28:05.946Z,38.72
2022-08-03T21:30:32.502Z,38.75
2022-08-03T21:32:59.118Z,38.44
2022-08-03T21:35:26.488Z,38.63
2022-08-03T21:37:54.057Z,38.91
2022-08-03T21:40:20.641Z,39.04
2022-08-03T21:42:48.638Z,39.11
2022-08-03T21:45:17.407Z,38.90
2022-08-03T21:47:45.555Z,39.29
2022-08-03T21:50:13.223Z,39.38
2022-08-03T21:52:42.905Z,39.92
2022-08-03T21:55:20.410Z,39.75
2022-08-03T21:57:52.277Z,39.78
2022-08-03T22:00:22.436Z,39.79
2022-08-03T22:02:53.147Z,39.96
2022-08-03T22:05:29.050Z,40.38
2022-08-03T22:08:10.869Z,40.01
2022-08-03T22:10:37.752Z,39.97
2022-08-03T22:13:06.025Z,40.00
2022-08-03T22:15:33.527Z,39.88
2022-08-03T22:18:00.564Z,40.16
2022-08-03T22:20:27.178Z,40.48
2022-08-03T22:22:56.783Z,40.36
2022-08-03T22:25:27.454Z,40.66
2022-08-03T22:27:54.866Z,41.24
2022-08-03T22:30:22.914Z,40.88
2022-08-03T22:32:52.587Z,40.82
2022-08-03T22:35:21.285Z,41.08
2022-08-03T22:37:49.414Z,40.94
2022-08-03T22:40:17.322Z,41.12
2022-08-03T22:42:45.278Z,40.67
2022-08-03T22:45:12.359Z,41.03
2022-08-03T22:48:00.812Z,41.04
2022-08-03T22:50:32.266Z,41.50
2022-08-03T22:53:01.209Z,41.74
2022-08-03T22:55:27.869Z,41.73
2022-08-03T22:57:56.135Z,41.38
2022-08-03T23:00:23.391Z,41.40
2022-08-03T23:02:51.551Z,41.50
2022-08-03T23:06:02.320Z,41.89
2022-08-03T23:08:14.941Z,41.75
2022-08-03T23:10:46.761Z,41.53
2022-08-03T23:13:15.722Z,42.24
2022-08-03T23:15:48.402Z,42.38
2022-08-03T23:18:15.060Z,42.16
2022-08-03T23:20:44.667Z,42.07
2022-08-03T23:23:12.693Z,42.30
2022-08-03T23:25:41.534Z,42.36
2022-08-03T23:28:09.258Z,42.55
2022-08-03T23:30:37.270Z,42.15
2022-08-03T23:33:04.321Z,42.24
2022-08-03T23:36:29.846Z,42.10
2022-08-03T23:38:22.234Z,42.01
2022-08-03T23:40:51.376Z,42.12
2022-08-03T23:43:45.026Z,41.69
2022-08-03T23:46:08.757Z,42.35
2022-08-03T23:48:35.645Z,42.19
2022-08-03T23:51:09.887Z,41.89
2022-08-03T23:53:47.659Z,41.71
2022-08-03T23:56:23.349Z,41.81
2022-08-03T23:59:05.037Z,41.85
